sensor_id;sensor_type;location;lat;lon;timestamp;P1;durP1;ratioP1;P2;durP2;ratioP2
4810;SDS011;2419;51.276;6.472;2023-04-03T00:01:12;3.50;;;2.50;;
4810;SDS011;2419;51.276;6.472;2023-04-03T00:03:40;3.03;;;2.10;;
4810;SDS011;2419;51.276;6.472;2023-04-03T00:06:09;9.00;;;2.60;;
4810;SDS011;2419;51.276;6.472;2023-04-03T00:08:38;9.23;;;3.37;;
4810;SDS011;2419;51.276;6.472;2023-04-03T00:11:07;4.03;;;3.00;;
4810;SDS011;2419;51.276;6.472;2023-04-03T00:13:35;6.33;;;2.90;;
4810;SDS011;2419;51.276;6.472;2023-04-03T00:16:06;4.27;;;3.07;;
4810;SDS011;2419;51.276;6.472;2023-04-03T00:18:34;6.93;;;2.77;;
4810;SDS011;2419;51.276;6.472;2023-04-03T00:21:03;3.50;;;2.20;;
4810;SDS011;2419;51.276;6.472;2023-04-03T00:23:33;1.90;;;1.80;;
4810;SDS011;2419;51.276;6.472;2023-04-03T00:26:01;6.43;;;2.77;;
4810;SDS011;2419;51.276;6.472;2023-04-03T00:28:29;3.00;;;2.80;;
4810;SDS011;2419;51.276;6.472;2023-04-03T00:30:58;2.70;;;2.40;;
4810;SDS011;2419;51.276;6.472;2023-04-03T00:33:28;5.30;;;2.77;;
4810;SDS011;2419;51.276;6.472;2023-04-03T00:35:56;4.23;;;2.87;;
4810;SDS011;2419;51.276;6.472;2023-04-03T00:38:24;7.50;;;4.17;;
4810;SDS011;2419;51.276;6.472;2023-04-03T00:40:52;3.47;;;2.87;;
4810;SDS011;2419;51.276;6.472;2023-04-03T00:43:21;2.70;;;2.47;;
4810;SDS011;2419;51.276;6.472;2023-04-03T00:45:51;2.73;;;2.20;;
4810;SDS011;2419;51.276;6.472;2023-04-03T00:48:20;7.27;;;3.30;;
4810;SDS011;2419;51.276;6.472;2023-04-03T00:50:51;2.90;;;2.00;;
4810;SDS011;2419;51.276;6.472;2023-04-03T00:53:21;3.80;;;2.63;;
4810;SDS011;2419;51.276;6.472;2023-04-03T00:55:51;2.60;;;2.40;;
4810;SDS011;2419;51.276;6.472;2023-04-03T00:58:25;4.00;;;3.00;;
4810;SDS011;2419;51.276;6.472;2023-04-03T01:01:02;2.97;;;2.67;;
4810;SDS011;2419;51.276;6.472;2023-04-03T01:03:34;7.83;;;2.73;;
4810;SDS011;2419;51.276;6.472;2023-04-03T01:06:05;4.10;;;3.27;;
4810;SDS011;2419;51.276;6.472;2023-04-03T01:08:34;3.13;;;2.33;;
4810;SDS011;2419;51.276;6.472;2023-04-03T01:11:02;5.83;;;2.70;;
4810;SDS011;2419;51.276;6.472;2023-04-03T01:13:31;4.47;;;3.70;;
4810;SDS011;2419;51.276;6.472;2023-04-03T01:16:01;5.60;;;2.97;;
4810;SDS011;2419;51.276;6.472;2023-04-03T01:18:30;5.00;;;2.87;;
4810;SDS011;2419;51.276;6.472;2023-04-03T01:24:12;3.80;;;2.67;;
4810;SDS011;2419;51.276;6.472;2023-04-03T01:26:49;5.40;;;3.10;;
4810;SDS011;2419;51.276;6.472;2023-04-03T01:29:17;3.23;;;2.53;;
4810;SDS011;2419;51.276;6.472;2023-04-03T01:31:49;4.40;;;3.40;;
4810;SDS011;2419;51.276;6.472;2023-04-03T01:34:19;4.20;;;3.50;;
4810;SDS011;2419;51.276;6.472;2023-04-03T01:36:48;2.60;;;2.40;;
4810;SDS011;2419;51.276;6.472;2023-04-03T01:39:17;5.47;;;2.70;;
4810;SDS011;2419;51.276;6.472;2023-04-03T01:41:46;6.07;;;3.13;;
4810;SDS011;2419;51.276;6.472;2023-04-03T01:44:37;7.20;;;4.03;;
4810;SDS011;2419;51.276;6.472;2023-04-03T01:47:06;4.50;;;2.90;;
4810;SDS011;2419;51.276;6.472;2023-04-03T01:49:36;3.93;;;2.63;;
4810;SDS011;2419;51.276;6.472;2023-04-03T01:52:04;4.93;;;3.70;;
4810;SDS011;2419;51.276;6.472;2023-04-03T01:54:32;3.30;;;2.60;;
4810;SDS011;2419;51.276;6.472;2023-04-03T01:57:00;4.00;;;2.73;;
4810;SDS011;2419;51.276;6.472;2023-04-03T01:59:29;4.20;;;3.17;;
4810;SDS011;2419;51.276;6.472;2023-04-03T02:01:57;5.37;;;3.50;;
4810;SDS011;2419;51.276;6.472;2023-04-03T02:04:27;5.07;;;3.00;;
4810;SDS011;2419;51.276;6.472;2023-04-03T02:06:55;6.50;;;3.47;;
4810;SDS011;2419;51.276;6.472;2023-04-03T02:09:24;11.60;;;3.63;;
4810;SDS011;2419;51.276;6.472;2023-04-03T02:11:52;7.07;;;3.73;;
4810;SDS011;2419;51.276;6.472;2023-04-03T02:14:20;7.23;;;3.70;;
4810;SDS011;2419;51.276;6.472;2023-04-03T02:16:49;5.33;;;3.63;;
4810;SDS011;2419;51.276;6.472;2023-04-03T02:19:20;3.80;;;3.30;;
4810;SDS011;2419;51.276;6.472;2023-04-03T02:21:49;21.03;;;4.40;;
4810;SDS011;2419;51.276;6.472;2023-04-03T02:24:17;4.63;;;3.33;;
4810;SDS011;2419;51.276;6.472;2023-04-03T02:26:45;2.90;;;2.67;;
4810;SDS011;2419;51.276;6.472;2023-04-03T02:29:14;4.87;;;3.97;;
4810;SDS011;2419;51.276;6.472;2023-04-03T02:31:42;4.70;;;3.40;;
4810;SDS011;2419;51.276;6.472;2023-04-03T02:34:10;5.07;;;3.43;;
4810;SDS011;2419;51.276;6.472;2023-04-03T02:36:39;12.20;;;4.70;;
4810;SDS011;2419;51.276;6.472;2023-04-03T02:39:10;5.80;;;4.10;;
4810;SDS011;2419;51.276;6.472;2023-04-03T02:41:38;4.73;;;3.00;;
4810;SDS011;2419;51.276;6.472;2023-04-03T02:44:14;3.70;;;3.03;;
4810;SDS011;2419;51.276;6.472;2023-04-03T02:46:42;8.73;;;3.80;;
4810;SDS011;2419;51.276;6.472;2023-04-03T02:49:10;4.43;;;2.30;;
4810;SDS011;2419;51.276;6.472;2023-04-03T02:51:38;3.70;;;3.30;;
4810;SDS011;2419;51.276;6.472;2023-04-03T02:54:07;3.63;;;2.60;;
4810;SDS011;2419;51.276;6.472;2023-04-03T02:56:39;2.40;;;2.00;;
4810;SDS011;2419;51.276;6.472;2023-04-03T02:59:07;4.60;;;3.37;;
4810;SDS011;2419;51.276;6.472;2023-04-03T03:01:37;4.60;;;2.10;;
4810;SDS011;2419;51.276;6.472;2023-04-03T03:04:05;8.90;;;2.40;;
4810;SDS011;2419;51.276;6.472;2023-04-03T03:06:33;4.17;;;3.20;;
4810;SDS011;2419;51.276;6.472;2023-04-03T03:09:02;2.60;;;2.20;;
4810;SDS011;2419;51.276;6.472;2023-04-03T03:11:30;5.53;;;2.33;;
4810;SDS011;2419;51.276;6.472;2023-04-03T03:14:00;2.20;;;2.00;;
4810;SDS011;2419;51.276;6.472;2023-04-03T03:16:28;7.37;;;2.90;;
4810;SDS011;2419;51.276;6.472;2023-04-03T03:18:56;4.90;;;3.10;;
4810;SDS011;2419;51.276;6.472;2023-04-03T03:21:24;5.67;;;2.10;;
4810;SDS011;2419;51.276;6.472;2023-04-03T03:23:52;4.00;;;2.43;;
4810;SDS011;2419;51.276;6.472;2023-04-03T03:26:23;2.70;;;1.83;;
4810;SDS011;2419;51.276;6.472;2023-04-03T03:28:51;3.00;;;2.20;;
4810;SDS011;2419;51.276;6.472;2023-04-03T03:31:20;2.30;;;2.10;;
4810;SDS011;2419;51.276;6.472;2023-04-03T03:33:48;1.80;;;1.70;;
4810;SDS011;2419;51.276;6.472;2023-04-03T03:36:16;4.60;;;2.40;;
4810;SDS011;2419;51.276;6.472;2023-04-03T03:38:44;1.60;;;1.50;;
4810;SDS011;2419;51.276;6.472;2023-04-03T03:41:12;3.10;;;1.80;;
4810;SDS011;2419;51.276;6.472;2023-04-03T03:43:46;1.40;;;1.30;;
4810;SDS011;2419;51.276;6.472;2023-04-03T03:46:15;5.20;;;1.80;;
4810;SDS011;2419;51.276;6.472;2023-04-03T03:48:45;2.50;;;2.30;;
4810;SDS011;2419;51.276;6.472;2023-04-03T03:51:13;3.20;;;1.73;;
4810;SDS011;2419;51.276;6.472;2023-04-03T03:53:42;6.27;;;1.87;;
4810;SDS011;2419;51.276;6.472;2023-04-03T03:56:13;1.27;;;1.17;;
4810;SDS011;2419;51.276;6.472;2023-04-03T03:58:43;1.87;;;1.30;;
4810;SDS011;2419;51.276;6.472;2023-04-03T04:01:11;1.67;;;1.57;;
4810;SDS011;2419;51.276;6.472;2023-04-03T04:03:46;2.27;;;1.23;;
4810;SDS011;2419;51.276;6.472;2023-04-03T04:06:18;4.33;;;1.97;;
4810;SDS011;2419;51.276;6.472;2023-04-03T04:08:47;6.60;;;2.30;;
4810;SDS011;2419;51.276;6.472;2023-04-03T04:11:15;2.43;;;1.50;;
4810;SDS011;2419;51.276;6.472;2023-04-03T04:13:45;1.47;;;1.37;;
4810;SDS011;2419;51.276;6.472;2023-04-03T04:16:15;2.60;;;2.23;;
4810;SDS011;2419;51.276;6.472;2023-04-03T04:18:43;3.23;;;2.03;;
4810;SDS011;2419;51.276;6.472;2023-04-03T04:21:12;2.00;;;1.70;;
4810;SDS011;2419;51.276;6.472;2023-04-03T04:23:41;1.80;;;1.20;;
4810;SDS011;2419;51.276;6.472;2023-04-03T04:26:09;10.27;;;1.57;;
4810;SDS011;2419;51.276;6.472;2023-04-03T04:28:38;1.60;;;1.50;;
4810;SDS011;2419;51.276;6.472;2023-04-03T04:31:06;1.40;;;1.23;;
4810;SDS011;2419;51.276;6.472;2023-04-03T04:33:35;3.90;;;1.73;;
4810;SDS011;2419;51.276;6.472;2023-04-03T04:36:05;2.53;;;2.13;;
4810;SDS011;2419;51.276;6.472;2023-04-03T04:38:35;2.27;;;1.87;;
4810;SDS011;2419;51.276;6.472;2023-04-03T04:41:05;2.80;;;2.00;;
4810;SDS011;2419;51.276;6.472;2023-04-03T04:43:33;8.03;;;3.20;;
4810;SDS011;2419;51.276;6.472;2023-04-03T04:46:02;2.57;;;1.70;;
4810;SDS011;2419;51.276;6.472;2023-04-03T04:48:35;2.50;;;1.53;;
4810;SDS011;2419;51.276;6.472;2023-04-03T04:51:04;3.40;;;2.63;;
4810;SDS011;2419;51.276;6.472;2023-04-03T04:53:36;3.17;;;1.77;;
4810;SDS011;2419;51.276;6.472;2023-04-03T04:56:05;1.57;;;1.27;;
4810;SDS011;2419;51.276;6.472;2023-04-03T04:58:35;3.03;;;1.73;;
4810;SDS011;2419;51.276;6.472;2023-04-03T05:01:05;4.30;;;1.77;;
4810;SDS011;2419;51.276;6.472;2023-04-03T05:03:39;3.53;;;1.40;;
4810;SDS011;2419;51.276;6.472;2023-04-03T05:06:07;5.23;;;1.50;;
4810;SDS011;2419;51.276;6.472;2023-04-03T05:08:37;1.50;;;1.13;;
4810;SDS011;2419;51.276;6.472;2023-04-03T05:11:06;6.20;;;2.03;;
4810;SDS011;2419;51.276;6.472;2023-04-03T05:13:34;1.57;;;1.40;;
4810;SDS011;2419;51.276;6.472;2023-04-03T05:16:02;2.27;;;1.97;;
4810;SDS011;2419;51.276;6.472;2023-04-03T05:18:31;2.80;;;1.93;;
4810;SDS011;2419;51.276;6.472;2023-04-03T05:21:04;1.73;;;1.50;;
4810;SDS011;2419;51.276;6.472;2023-04-03T05:23:32;2.60;;;1.67;;
4810;SDS011;2419;51.276;6.472;2023-04-03T05:26:03;8.30;;;3.20;;
4810;SDS011;2419;51.276;6.472;2023-04-03T05:28:31;2.03;;;1.43;;
4810;SDS011;2419;51.276;6.472;2023-04-03T05:31:00;3.30;;;2.07;;
4810;SDS011;2419;51.276;6.472;2023-04-03T05:33:33;1.50;;;1.27;;
4810;SDS011;2419;51.276;6.472;2023-04-03T05:36:03;1.50;;;1.40;;
4810;SDS011;2419;51.276;6.472;2023-04-03T05:38:36;2.63;;;1.43;;
4810;SDS011;2419;51.276;6.472;2023-04-03T05:41:05;1.93;;;1.30;;
4810;SDS011;2419;51.276;6.472;2023-04-03T05:43:33;5.70;;;1.67;;
4810;SDS011;2419;51.276;6.472;2023-04-03T05:46:07;4.43;;;1.50;;
4810;SDS011;2419;51.276;6.472;2023-04-03T05:48:37;1.97;;;1.70;;
4810;SDS011;2419;51.276;6.472;2023-04-03T05:51:09;1.70;;;1.60;;
4810;SDS011;2419;51.276;6.472;2023-04-03T05:53:43;1.93;;;1.40;;
4810;SDS011;2419;51.276;6.472;2023-04-03T05:56:14;4.57;;;1.40;;
4810;SDS011;2419;51.276;6.472;2023-04-03T05:58:42;1.80;;;1.70;;
4810;SDS011;2419;51.276;6.472;2023-04-03T06:01:10;3.30;;;1.60;;
4810;SDS011;2419;51.276;6.472;2023-04-03T06:03:39;2.67;;;1.43;;
4810;SDS011;2419;51.276;6.472;2023-04-03T06:06:10;2.50;;;1.47;;
4810;SDS011;2419;51.276;6.472;2023-04-03T06:08:42;2.27;;;1.50;;
4810;SDS011;2419;51.276;6.472;2023-04-03T06:11:10;1.73;;;1.30;;
4810;SDS011;2419;51.276;6.472;2023-04-03T06:13:40;5.30;;;1.90;;
4810;SDS011;2419;51.276;6.472;2023-04-03T06:16:08;3.50;;;1.70;;
4810;SDS011;2419;51.276;6.472;2023-04-03T06:18:40;3.03;;;1.70;;
4810;SDS011;2419;51.276;6.472;2023-04-03T06:21:08;5.17;;;1.90;;
4810;SDS011;2419;51.276;6.472;2023-04-03T06:23:37;2.87;;;1.47;;
4810;SDS011;2419;51.276;6.472;2023-04-03T06:26:05;3.70;;;1.57;;
4810;SDS011;2419;51.276;6.472;2023-04-03T06:28:33;2.50;;;2.10;;
4810;SDS011;2419;51.276;6.472;2023-04-03T06:31:02;1.67;;;1.47;;
4810;SDS011;2419;51.276;6.472;2023-04-03T06:33:30;2.47;;;1.97;;
4810;SDS011;2419;51.276;6.472;2023-04-03T06:35:58;3.07;;;1.40;;
4810;SDS011;2419;51.276;6.472;2023-04-03T06:38:27;3.70;;;1.40;;
4810;SDS011;2419;51.276;6.472;2023-04-03T06:40:55;10.23;;;1.70;;
4810;SDS011;2419;51.276;6.472;2023-04-03T06:43:23;1.53;;;1.23;;
4810;SDS011;2419;51.276;6.472;2023-04-03T06:45:52;1.43;;;1.13;;
4810;SDS011;2419;51.276;6.472;2023-04-03T06:48:21;3.43;;;1.87;;
4810;SDS011;2419;51.276;6.472;2023-04-03T06:50:50;3.13;;;1.47;;
4810;SDS011;2419;51.276;6.472;2023-04-03T06:53:17;2.30;;;1.63;;
4810;SDS011;2419;51.276;6.472;2023-04-03T06:55:46;4.30;;;2.03;;
4810;SDS011;2419;51.276;6.472;2023-04-03T06:58:14;2.00;;;1.47;;
4810;SDS011;2419;51.276;6.472;2023-04-03T07:00:44;2.00;;;1.33;;
4810;SDS011;2419;51.276;6.472;2023-04-03T07:03:13;3.20;;;1.47;;
4810;SDS011;2419;51.276;6.472;2023-04-03T07:05:43;3.33;;;1.70;;
4810;SDS011;2419;51.276;6.472;2023-04-03T07:08:12;1.70;;;1.37;;
4810;SDS011;2419;51.276;6.472;2023-04-03T07:10:40;2.30;;;1.27;;
4810;SDS011;2419;51.276;6.472;2023-04-03T07:13:08;9.97;;;1.73;;
4810;SDS011;2419;51.276;6.472;2023-04-03T07:15:35;6.73;;;1.73;;
4810;SDS011;2419;51.276;6.472;2023-04-03T07:18:04;3.13;;;1.50;;
4810;SDS011;2419;51.276;6.472;2023-04-03T07:20:32;1.30;;;1.20;;
4810;SDS011;2419;51.276;6.472;2023-04-03T07:23:02;1.73;;;1.17;;
4810;SDS011;2419;51.276;6.472;2023-04-03T07:25:30;3.13;;;1.60;;
4810;SDS011;2419;51.276;6.472;2023-04-03T07:28:00;1.67;;;1.27;;
4810;SDS011;2419;51.276;6.472;2023-04-03T07:30:28;4.43;;;1.27;;
4810;SDS011;2419;51.276;6.472;2023-04-03T07:32:56;3.00;;;1.60;;
4810;SDS011;2419;51.276;6.472;2023-04-03T07:35:24;2.20;;;1.20;;
4810;SDS011;2419;51.276;6.472;2023-04-03T07:37:52;1.50;;;1.40;;
4810;SDS011;2419;51.276;6.472;2023-04-03T07:40:21;4.20;;;1.70;;
4810;SDS011;2419;51.276;6.472;2023-04-03T07:42:49;2.30;;;1.10;;
4810;SDS011;2419;51.276;6.472;2023-04-03T07:45:17;3.57;;;1.57;;
4810;SDS011;2419;51.276;6.472;2023-04-03T07:47:45;1.20;;;1.10;;
4810;SDS011;2419;51.276;6.472;2023-04-03T07:50:14;2.17;;;1.50;;
4810;SDS011;2419;51.276;6.472;2023-04-03T07:52:42;2.23;;;1.10;;
4810;SDS011;2419;51.276;6.472;2023-04-03T07:55:10;6.10;;;1.70;;
4810;SDS011;2419;51.276;6.472;2023-04-03T07:57:40;2.33;;;1.80;;
4810;SDS011;2419;51.276;6.472;2023-04-03T08:00:09;4.37;;;1.43;;
4810;SDS011;2419;51.276;6.472;2023-04-03T08:02:40;2.30;;;1.10;;
4810;SDS011;2419;51.276;6.472;2023-04-03T08:05:09;1.80;;;1.23;;
4810;SDS011;2419;51.276;6.472;2023-04-03T08:07:37;1.70;;;1.37;;
4810;SDS011;2419;51.276;6.472;2023-04-03T08:10:06;1.57;;;1.47;;
4810;SDS011;2419;51.276;6.472;2023-04-03T08:12:34;1.80;;;1.30;;
4810;SDS011;2419;51.276;6.472;2023-04-03T08:15:08;2.00;;;1.03;;
4810;SDS011;2419;51.276;6.472;2023-04-03T08:17:36;1.50;;;1.30;;
4810;SDS011;2419;51.276;6.472;2023-04-03T08:20:05;1.47;;;1.00;;
4810;SDS011;2419;51.276;6.472;2023-04-03T08:22:34;3.03;;;1.47;;
4810;SDS011;2419;51.276;6.472;2023-04-03T08:25:02;1.67;;;1.40;;
4810;SDS011;2419;51.276;6.472;2023-04-03T08:27:31;1.87;;;1.43;;
4810;SDS011;2419;51.276;6.472;2023-04-03T08:29:59;1.20;;;0.90;;
4810;SDS011;2419;51.276;6.472;2023-04-03T08:32:29;2.13;;;1.20;;
4810;SDS011;2419;51.276;6.472;2023-04-03T08:34:57;2.17;;;1.07;;
4810;SDS011;2419;51.276;6.472;2023-04-03T08:37:25;2.03;;;1.37;;
4810;SDS011;2419;51.276;6.472;2023-04-03T08:39:53;3.17;;;1.47;;
4810;SDS011;2419;51.276;6.472;2023-04-03T08:42:25;3.07;;;1.27;;
4810;SDS011;2419;51.276;6.472;2023-04-03T08:45:09;4.37;;;1.53;;
4810;SDS011;2419;51.276;6.472;2023-04-03T08:47:43;1.20;;;0.90;;
4810;SDS011;2419;51.276;6.472;2023-04-03T08:50:17;2.50;;;1.20;;
4810;SDS011;2419;51.276;6.472;2023-04-03T08:52:58;1.00;;;0.70;;
4810;SDS011;2419;51.276;6.472;2023-04-03T08:55:27;1.47;;;0.90;;
4810;SDS011;2419;51.276;6.472;2023-04-03T08:57:58;1.30;;;1.00;;
4810;SDS011;2419;51.276;6.472;2023-04-03T09:00:30;1.07;;;0.97;;
4810;SDS011;2419;51.276;6.472;2023-04-03T09:03:10;1.00;;;0.93;;
4810;SDS011;2419;51.276;6.472;2023-04-03T09:05:41;2.10;;;1.00;;
4810;SDS011;2419;51.276;6.472;2023-04-03T09:08:18;1.53;;;1.00;;
4810;SDS011;2419;51.276;6.472;2023-04-03T09:10:55;2.93;;;1.10;;
4810;SDS011;2419;51.276;6.472;2023-04-03T09:13:32;1.77;;;1.20;;
4810;SDS011;2419;51.276;6.472;2023-04-03T09:16:05;0.90;;;0.80;;
4810;SDS011;2419;51.276;6.472;2023-04-03T09:18:50;1.57;;;1.10;;
4810;SDS011;2419;51.276;6.472;2023-04-03T09:21:26;2.53;;;1.00;;
4810;SDS011;2419;51.276;6.472;2023-04-03T09:23:59;2.20;;;1.07;;
4810;SDS011;2419;51.276;6.472;2023-04-03T09:26:30;2.83;;;1.10;;
4810;SDS011;2419;51.276;6.472;2023-04-03T09:29:02;0.80;;;0.80;;
4810;SDS011;2419;51.276;6.472;2023-04-03T09:31:35;2.10;;;0.90;;
4810;SDS011;2419;51.276;6.472;2023-04-03T09:34:09;0.83;;;0.73;;
4810;SDS011;2419;51.276;6.472;2023-04-03T09:36:45;1.20;;;1.10;;
4810;SDS011;2419;51.276;6.472;2023-04-03T09:39:14;1.00;;;0.90;;
4810;SDS011;2419;51.276;6.472;2023-04-03T09:41:56;0.87;;;0.87;;
4810;SDS011;2419;51.276;6.472;2023-04-03T09:44:28;1.37;;;0.83;;
4810;SDS011;2419;51.276;6.472;2023-04-03T09:46:58;1.33;;;0.83;;
4810;SDS011;2419;51.276;6.472;2023-04-03T09:49:28;3.80;;;1.10;;
4810;SDS011;2419;51.276;6.472;2023-04-03T09:51:56;0.80;;;0.80;;
4810;SDS011;2419;51.276;6.472;2023-04-03T09:54:25;0.90;;;0.70;;
4810;SDS011;2419;51.276;6.472;2023-04-03T09:57:00;1.10;;;0.80;;
4810;SDS011;2419;51.276;6.472;2023-04-03T09:59:33;1.10;;;1.00;;
4810;SDS011;2419;51.276;6.472;2023-04-03T10:02:02;1.00;;;0.80;;
4810;SDS011;2419;51.276;6.472;2023-04-03T10:04:45;1.73;;;0.90;;
4810;SDS011;2419;51.276;6.472;2023-04-03T10:07:31;0.90;;;0.60;;
4810;SDS011;2419;51.276;6.472;2023-04-03T10:10:02;2.10;;;0.80;;
4810;SDS011;2419;51.276;6.472;2023-04-03T10:12:43;1.27;;;1.10;;
4810;SDS011;2419;51.276;6.472;2023-04-03T10:15:11;1.53;;;1.20;;
4810;SDS011;2419;51.276;6.472;2023-04-03T10:17:47;2.47;;;0.90;;
4810;SDS011;2419;51.276;6.472;2023-04-03T10:20:26;1.27;;;0.80;;
4810;SDS011;2419;51.276;6.472;2023-04-03T10:23:00;1.57;;;1.07;;
4810;SDS011;2419;51.276;6.472;2023-04-03T10:25:40;1.27;;;0.80;;
4810;SDS011;2419;51.276;6.472;2023-04-03T10:28:12;3.03;;;1.00;;
4810;SDS011;2419;51.276;6.472;2023-04-03T10:30:50;2.33;;;0.97;;
4810;SDS011;2419;51.276;6.472;2023-04-03T10:33:36;1.73;;;1.10;;
4810;SDS011;2419;51.276;6.472;2023-04-03T10:36:16;1.27;;;1.00;;
4810;SDS011;2419;51.276;6.472;2023-04-03T10:38:53;2.60;;;1.23;;
4810;SDS011;2419;51.276;6.472;2023-04-03T10:41:29;1.30;;;0.90;;
4810;SDS011;2419;51.276;6.472;2023-04-03T10:44:10;0.93;;;0.83;;
4810;SDS011;2419;51.276;6.472;2023-04-03T10:46:43;2.00;;;0.90;;
4810;SDS011;2419;51.276;6.472;2023-04-03T10:49:18;2.37;;;1.10;;
4810;SDS011;2419;51.276;6.472;2023-04-03T10:51:58;1.47;;;1.30;;
4810;SDS011;2419;51.276;6.472;2023-04-03T10:57:22;2.40;;;1.60;;
4810;SDS011;2419;51.276;6.472;2023-04-03T10:59:53;2.80;;;1.00;;
4810;SDS011;2419;51.276;6.472;2023-04-03T11:02:25;1.60;;;1.10;;
4810;SDS011;2419;51.276;6.472;2023-04-03T11:04:59;4.70;;;1.10;;
4810;SDS011;2419;51.276;6.472;2023-04-03T11:07:32;3.10;;;1.23;;
4810;SDS011;2419;51.276;6.472;2023-04-03T11:10:09;0.90;;;0.87;;
4810;SDS011;2419;51.276;6.472;2023-04-03T11:12:41;1.57;;;0.80;;
4810;SDS011;2419;51.276;6.472;2023-04-03T11:15:14;1.60;;;1.50;;
4810;SDS011;2419;51.276;6.472;2023-04-03T11:17:45;2.53;;;1.53;;
4810;SDS011;2419;51.276;6.472;2023-04-03T11:20:19;3.33;;;1.07;;
4810;SDS011;2419;51.276;6.472;2023-04-03T11:22:57;1.63;;;1.20;;
4810;SDS011;2419;51.276;6.472;2023-04-03T11:25:30;2.90;;;1.07;;
4810;SDS011;2419;51.276;6.472;2023-04-03T11:28:02;2.20;;;1.10;;
4810;SDS011;2419;51.276;6.472;2023-04-03T11:30:32;1.53;;;0.93;;
4810;SDS011;2419;51.276;6.472;2023-04-03T11:33:21;1.83;;;1.00;;
4810;SDS011;2419;51.276;6.472;2023-04-03T11:35:57;1.90;;;1.00;;
4810;SDS011;2419;51.276;6.472;2023-04-03T11:38:42;2.00;;;1.30;;
4810;SDS011;2419;51.276;6.472;2023-04-03T11:41:12;1.40;;;0.93;;
4810;SDS011;2419;51.276;6.472;2023-04-03T11:43:42;1.20;;;1.10;;
4810;SDS011;2419;51.276;6.472;2023-04-03T11:46:30;3.30;;;1.23;;
4810;SDS011;2419;51.276;6.472;2023-04-03T11:52:56;3.13;;;1.03;;
4810;SDS011;2419;51.276;6.472;2023-04-03T11:55:43;1.77;;;1.20;;
4810;SDS011;2419;51.276;6.472;2023-04-03T11:58:19;4.13;;;1.27;;
4810;SDS011;2419;51.276;6.472;2023-04-03T12:00:51;2.70;;;1.23;;
4810;SDS011;2419;51.276;6.472;2023-04-03T12:03:34;3.57;;;1.27;;
4810;SDS011;2419;51.276;6.472;2023-04-03T12:12:58;1.53;;;0.90;;
4810;SDS011;2419;51.276;6.472;2023-04-03T12:21:24;0.90;;;0.90;;
4810;SDS011;2419;51.276;6.472;2023-04-03T12:24:33;4.00;;;1.20;;
4810;SDS011;2419;51.276;6.472;2023-04-03T12:27:03;3.20;;;1.33;;
4810;SDS011;2419;51.276;6.472;2023-04-03T12:29:43;2.47;;;1.10;;
4810;SDS011;2419;51.276;6.472;2023-04-03T12:32:22;3.40;;;1.27;;
4810;SDS011;2419;51.276;6.472;2023-04-03T12:35:10;2.87;;;1.47;;
4810;SDS011;2419;51.276;6.472;2023-04-03T12:40:48;3.00;;;1.27;;
4810;SDS011;2419;51.276;6.472;2023-04-03T12:43:23;1.20;;;1.10;;
4810;SDS011;2419;51.276;6.472;2023-04-03T12:46:04;1.43;;;1.20;;
4810;SDS011;2419;51.276;6.472;2023-04-03T12:48:46;1.90;;;1.17;;
4810;SDS011;2419;51.276;6.472;2023-04-03T12:51:18;1.43;;;1.03;;
4810;SDS011;2419;51.276;6.472;2023-04-03T12:53:51;1.43;;;1.00;;
4810;SDS011;2419;51.276;6.472;2023-04-03T12:56:24;1.27;;;1.10;;
4810;SDS011;2419;51.276;6.472;2023-04-03T12:58:56;2.57;;;1.20;;
4810;SDS011;2419;51.276;6.472;2023-04-03T13:01:41;4.20;;;1.03;;
4810;SDS011;2419;51.276;6.472;2023-04-03T13:04:10;1.97;;;1.43;;
4810;SDS011;2419;51.276;6.472;2023-04-03T13:06:40;0.90;;;0.80;;
4810;SDS011;2419;51.276;6.472;2023-04-03T13:09:19;1.10;;;1.00;;
4810;SDS011;2419;51.276;6.472;2023-04-03T13:11:50;1.27;;;0.80;;
4810;SDS011;2419;51.276;6.472;2023-04-03T13:14:22;3.63;;;1.10;;
4810;SDS011;2419;51.276;6.472;2023-04-03T13:16:53;1.37;;;0.93;;
4810;SDS011;2419;51.276;6.472;2023-04-03T13:19:23;1.73;;;1.10;;
4810;SDS011;2419;51.276;6.472;2023-04-03T13:21:56;1.93;;;1.47;;
4810;SDS011;2419;51.276;6.472;2023-04-03T13:24:30;1.10;;;1.00;;
4810;SDS011;2419;51.276;6.472;2023-04-03T13:27:01;2.60;;;1.03;;
4810;SDS011;2419;51.276;6.472;2023-04-03T13:29:30;1.60;;;1.10;;
4810;SDS011;2419;51.276;6.472;2023-04-03T13:32:01;1.40;;;1.07;;
4810;SDS011;2419;51.276;6.472;2023-04-03T13:34:35;0.93;;;0.83;;
4810;SDS011;2419;51.276;6.472;2023-04-03T13:37:05;1.73;;;0.90;;
4810;SDS011;2419;51.276;6.472;2023-04-03T13:39:36;1.53;;;0.90;;
4810;SDS011;2419;51.276;6.472;2023-04-03T13:42:14;4.27;;;1.40;;
4810;SDS011;2419;51.276;6.472;2023-04-03T13:44:49;1.80;;;1.13;;
4810;SDS011;2419;51.276;6.472;2023-04-03T13:47:37;1.10;;;0.90;;
4810;SDS011;2419;51.276;6.472;2023-04-03T13:50:13;1.73;;;1.03;;
4810;SDS011;2419;51.276;6.472;2023-04-03T13:52:44;1.43;;;0.90;;
4810;SDS011;2419;51.276;6.472;2023-04-03T14:04:12;1.40;;;1.10;;
4810;SDS011;2419;51.276;6.472;2023-04-03T14:06:44;1.10;;;1.00;;
4810;SDS011;2419;51.276;6.472;2023-04-03T14:09:12;1.50;;;0.90;;
4810;SDS011;2419;51.276;6.472;2023-04-03T14:11:41;2.20;;;1.23;;
4810;SDS011;2419;51.276;6.472;2023-04-03T14:14:11;2.67;;;1.10;;
4810;SDS011;2419;51.276;6.472;2023-04-03T14:16:47;1.17;;;1.00;;
4810;SDS011;2419;51.276;6.472;2023-04-03T14:19:20;1.20;;;1.10;;
4810;SDS011;2419;51.276;6.472;2023-04-03T14:21:50;2.00;;;1.37;;
4810;SDS011;2419;51.276;6.472;2023-04-03T14:24:21;1.77;;;1.40;;
4810;SDS011;2419;51.276;6.472;2023-04-03T14:26:51;1.00;;;0.90;;
4810;SDS011;2419;51.276;6.472;2023-04-03T14:29:21;1.50;;;0.93;;
4810;SDS011;2419;51.276;6.472;2023-04-03T14:31:50;1.00;;;0.90;;
4810;SDS011;2419;51.276;6.472;2023-04-03T14:34:34;1.27;;;1.07;;
4810;SDS011;2419;51.276;6.472;2023-04-03T14:37:04;1.87;;;1.10;;
4810;SDS011;2419;51.276;6.472;2023-04-03T14:39:32;2.23;;;1.00;;
4810;SDS011;2419;51.276;6.472;2023-04-03T14:42:00;1.27;;;1.17;;
4810;SDS011;2419;51.276;6.472;2023-04-03T14:44:28;2.30;;;1.10;;
4810;SDS011;2419;51.276;6.472;2023-04-03T14:46:56;2.30;;;1.07;;
4810;SDS011;2419;51.276;6.472;2023-04-03T14:49:25;2.30;;;1.23;;
4810;SDS011;2419;51.276;6.472;2023-04-03T14:51:58;1.50;;;1.07;;
4810;SDS011;2419;51.276;6.472;2023-04-03T14:54:26;0.80;;;0.80;;
4810;SDS011;2419;51.276;6.472;2023-04-03T14:56:55;1.33;;;1.23;;
4810;SDS011;2419;51.276;6.472;2023-04-03T14:59:25;1.40;;;1.07;;
4810;SDS011;2419;51.276;6.472;2023-04-03T15:01:54;1.40;;;0.97;;
4810;SDS011;2419;51.276;6.472;2023-04-03T15:04:22;2.67;;;1.27;;
4810;SDS011;2419;51.276;6.472;2023-04-03T15:06:51;1.03;;;0.87;;
4810;SDS011;2419;51.276;6.472;2023-04-03T15:09:25;2.47;;;1.10;;
4810;SDS011;2419;51.276;6.472;2023-04-03T15:38:55;3.00;;;1.00;;
4810;SDS011;2419;51.276;6.472;2023-04-03T15:41:24;4.93;;;1.10;;
4810;SDS011;2419;51.276;6.472;2023-04-03T15:43:51;1.07;;;0.73;;
4810;SDS011;2419;51.276;6.472;2023-04-03T15:46:19;1.13;;;1.07;;
4810;SDS011;2419;51.276;6.472;2023-04-03T15:48:48;3.97;;;1.50;;
4810;SDS011;2419;51.276;6.472;2023-04-03T15:51:16;0.97;;;0.87;;
4810;SDS011;2419;51.276;6.472;2023-04-03T15:53:44;2.40;;;1.10;;
4810;SDS011;2419;51.276;6.472;2023-04-03T15:56:13;1.43;;;1.20;;
4810;SDS011;2419;51.276;6.472;2023-04-03T15:58:43;1.93;;;1.60;;
4810;SDS011;2419;51.276;6.472;2023-04-03T16:01:11;1.00;;;0.80;;
4810;SDS011;2419;51.276;6.472;2023-04-03T16:03:39;1.63;;;1.37;;
4810;SDS011;2419;51.276;6.472;2023-04-03T16:06:11;1.20;;;1.00;;
4810;SDS011;2419;51.276;6.472;2023-04-03T16:08:40;0.80;;;0.80;;
4810;SDS011;2419;51.276;6.472;2023-04-03T16:11:08;3.10;;;1.37;;
4810;SDS011;2419;51.276;6.472;2023-04-03T16:25:22;2.60;;;0.90;;
4810;SDS011;2419;51.276;6.472;2023-04-03T16:27:50;3.40;;;1.90;;
4810;SDS011;2419;51.276;6.472;2023-04-03T16:30:18;1.93;;;1.00;;
4810;SDS011;2419;51.276;6.472;2023-04-03T16:32:46;1.10;;;1.00;;
4810;SDS011;2419;51.276;6.472;2023-04-03T16:35:14;2.90;;;1.87;;
4810;SDS011;2419;51.276;6.472;2023-04-03T16:37:43;1.53;;;1.43;;
4810;SDS011;2419;51.276;6.472;2023-04-03T16:40:11;2.23;;;1.13;;
4810;SDS011;2419;51.276;6.472;2023-04-03T16:42:40;1.30;;;1.10;;
4810;SDS011;2419;51.276;6.472;2023-04-03T16:51:14;1.00;;;0.90;;
4810;SDS011;2419;51.276;6.472;2023-04-03T16:53:42;1.60;;;1.10;;
4810;SDS011;2419;51.276;6.472;2023-04-03T16:56:11;1.50;;;1.10;;
4810;SDS011;2419;51.276;6.472;2023-04-03T16:58:40;2.10;;;1.03;;